.
WxDataArchive / Data Records for 2014-04-19
2014-04-18 April 2014 2014-04-20

Data Records for Saturday, 19 April 2014

Time	Temp	Chill	HIndex	Humid	Dewpt	 Wind 	HiWind	WindDir	Rain 	Barom
-----	----	-----	------	-----	-----	------	------	-------	-----	-----
00:00	46.7	46.7	46.7	61	34.0	0	0	---	0.00	30.285 
00:05	46.4	46.4	46.4	61	33.7	0	0	---	0.00	30.285 
00:10	46.2	46.2	46.2	62	33.9	0	1	338	0.00	30.285 
00:15	46.0	46.0	46.0	62	33.7	0	1	338	0.00	30.291 
00:20	45.7	45.7	45.7	63	33.8	0	2	338	0.00	30.291 
00:25	45.7	45.7	45.7	63	33.8	0	1	338	0.00	30.291 
00:30	45.5	45.5	45.5	63	33.6	0	2	338	0.00	30.296 
00:35	45.4	45.4	45.4	62	33.2	0	2	338	0.00	30.296 
00:40	45.4	45.4	45.4	62	33.2	0	3	338	0.00	30.296 
00:45	45.4	45.4	45.4	62	33.2	0	1	338	0.00	30.300 
00:50	45.2	45.2	45.2	62	33.0	0	1	338	0.00	30.300 
00:55	44.9	44.9	44.9	62	32.7	0	1	338	0.00	30.300 
01:00	44.8	44.8	44.8	63	33.0	0	2	338	0.00	30.300 
01:05	44.6	44.6	44.6	63	32.8	0	1	338	0.00	30.300 
01:10	44.5	44.5	44.5	63	32.7	0	1	338	0.00	30.300 
01:15	44.2	44.2	44.2	64	32.8	0	1	338	0.00	30.300 
01:20	44.1	44.1	44.1	64	32.7	0	0	---	0.00	30.300 
01:25	43.9	43.9	43.9	64	32.5	0	1	338	0.00	30.300 
01:30	43.8	43.8	43.8	65	32.8	0	0	---	0.00	30.299 
01:35	43.6	43.6	43.6	65	32.6	0	0	---	0.00	30.299 
01:40	43.3	43.3	43.3	65	32.3	0	1	338	0.00	30.299 
01:45	43.2	43.2	43.2	66	32.6	0	1	338	0.00	30.301 
01:50	43.2	43.2	43.2	66	32.6	0	1	338	0.00	30.301 
01:55	42.9	42.9	42.9	67	32.7	0	1	338	0.00	30.301 
02:00	42.8	42.8	42.8	67	32.6	0	1	338	0.00	30.300 
02:05	42.8	42.8	42.8	67	32.6	0	1	338	0.00	30.300 
02:10	42.6	42.6	42.6	67	32.4	0	1	338	0.00	30.300 
02:15	42.6	42.6	42.6	67	32.4	0	1	338	0.00	30.296 
02:20	42.5	42.5	42.5	67	32.3	0	1	338	0.00	30.296 
02:25	42.3	42.3	42.3	68	32.5	0	1	338	0.00	30.296 
02:30	42.3	42.3	42.3	68	32.5	0	1	338	0.00	30.299 
02:35	42.2	42.2	42.2	68	32.4	0	2	338	0.00	30.299 
02:40	42.2	42.2	42.2	68	32.4	0	1	338	0.00	30.299 
02:45	42.1	42.1	42.1	68	32.3	0	1	338	0.00	30.297 
02:50	42.1	42.1	42.1	68	32.3	0	1	338	0.00	30.297 
02:55	42.1	42.1	42.1	68	32.3	0	1	338	0.00	30.297 
03:00	41.9	41.9	41.9	68	32.1	0	1	338	0.00	30.294 
03:05	41.8	41.8	41.8	68	32.0	0	0	---	0.00	30.294 
03:10	41.8	41.8	41.8	68	32.0	0	2	338	0.00	30.294 
03:15	41.9	41.9	41.9	68	32.1	0	1	338	0.00	30.291 
03:20	41.8	41.8	41.8	68	32.0	0	1	338	0.00	30.291 
03:25	41.8	41.8	41.8	68	32.0	0	2	338	0.00	30.291 
03:30	41.6	41.6	41.6	68	31.8	0	1	338	0.00	30.294 
03:35	41.5	41.5	41.5	69	32.1	0	0	---	0.00	30.294 
03:40	41.3	41.3	41.3	69	31.9	0	1	338	0.00	30.294 
03:45	41.3	41.3	41.3	69	31.9	0	1	338	0.00	30.301 
03:50	41.2	41.2	41.2	69	31.8	0	1	338	0.00	30.301 
03:55	41.1	41.1	41.1	69	31.7	0	1	338	0.00	30.301 
04:00	41.1	41.1	41.1	70	32.1	0	2	338	0.00	30.302 
04:05	41.1	41.1	41.1	70	32.1	0	1	338	0.00	30.302 
04:10	40.9	40.9	40.9	70	31.9	0	1	338	0.00	30.302 
04:15	40.8	40.8	40.8	70	31.8	0	0	---	0.00	30.300 
04:20	40.6	40.6	40.6	71	31.9	0	1	338	0.00	30.300 
04:25	40.6	40.6	40.6	71	31.9	0	1	338	0.00	30.300 
04:30	40.6	40.6	40.6	72	32.3	0	3	338	0.00	30.304 
04:35	40.9	40.9	40.9	74	33.3	0	3	45	0.00	30.304 
04:40	41.1	41.1	41.1	76	34.1	0	3	45	0.00	30.304 
04:45	41.5	41.5	41.5	78	35.2	2	7	112	0.00	30.311 
04:50	41.8	41.8	41.8	81	36.4	2	7	112	0.00	30.311 
04:55	42.2	42.2	42.2	83	37.4	3	12	112	0.00	30.311 
05:00	42.2	42.2	42.2	85	38.0	3	9	112	0.00	30.312 
05:05	41.9	41.9	41.9	85	37.7	2	7	90	0.00	30.312 
05:10	41.6	41.6	41.6	85	37.4	1	5	112	0.00	30.312 
05:15	41.6	41.6	41.6	85	37.4	2	6	112	0.00	30.315 
05:20	41.6	41.6	41.6	85	37.4	2	9	112	0.00	30.315 
05:25	41.6	41.6	41.6	84	37.1	3	6	112	0.00	30.315 
05:30	41.5	39.1	41.5	83	36.7	4	11	112	0.00	30.318 
05:35	41.5	41.5	41.5	83	36.7	3	12	112	0.00	30.318 
05:40	41.2	41.2	41.2	83	36.4	2	6	112	0.00	30.318 
05:45	40.9	40.9	40.9	83	36.1	2	6	112	0.00	30.329 
05:50	40.5	40.5	40.5	84	36.1	2	9	135	0.00	30.329 
05:55	40.1	40.1	40.1	83	35.4	2	6	90	0.00	30.329 
06:00	39.6	39.6	39.6	83	34.9	1	4	112	0.00	30.332 
06:05	39.2	39.2	39.2	82	34.2	2	5	112	0.00	30.332 
06:10	39.1	39.1	39.1	82	34.1	3	11	112	0.00	30.332 
06:15	38.9	38.9	38.9	82	33.9	2	7	90	0.00	30.336 
06:20	38.6	38.6	38.6	82	33.6	2	5	112	0.00	30.336 
06:25	38.5	38.5	38.5	82	33.5	2	6	112	0.00	30.336 
06:30	38.3	38.3	38.3	81	33.0	2	6	90	0.00	30.344 
06:35	38.0	38.0	38.0	81	32.7	2	6	112	0.00	30.344 
06:40	37.9	37.9	37.9	82	32.9	3	10	112	0.00	30.344 
06:45	37.8	37.8	37.8	81	32.5	3	8	112	0.00	30.351 
06:50	37.6	37.6	37.6	82	32.6	2	6	68	0.00	30.351 
06:55	37.5	37.5	37.5	82	32.5	3	7	112	0.00	30.351 
07:00	37.5	37.5	37.5	82	32.5	2	5	112	0.00	30.356 
07:05	37.3	37.3	37.3	82	32.3	2	9	112	0.00	30.356 
07:10	37.2	37.2	37.2	82	32.2	2	6	112	0.00	30.356 
07:15	37.2	37.2	37.2	83	32.5	2	6	112	0.00	30.368 
07:20	37.0	37.0	37.0	83	32.3	3	10	112	0.00	30.368 
07:25	37.0	37.0	37.0	83	32.3	2	6	112	0.00	30.368 
07:30	37.0	37.0	37.0	83	32.3	3	7	112	0.00	30.371 
07:35	37.2	37.2	37.2	83	32.5	3	9	112	0.00	30.371 
07:40	37.3	37.3	37.3	82	32.3	3	8	90	0.00	30.371 
07:45	37.5	37.5	37.5	82	32.5	2	7	112	0.00	30.377 
07:50	37.8	37.8	37.8	82	32.8	1	5	90	0.00	30.377 
07:55	37.9	37.9	37.9	81	32.6	2	7	112	0.00	30.377 
08:00	38.0	38.0	38.0	80	32.4	3	7	112	0.00	30.385 
08:05	38.0	34.1	38.0	79	32.1	5	9	112	0.00	30.385 
08:10	38.3	38.3	38.3	79	32.4	3	9	112	0.00	30.385 
08:15	38.5	35.6	38.5	78	32.2	4	9	112	0.00	30.388 
08:20	38.6	38.6	38.6	77	32.0	3	9	112	0.00	30.388 
08:25	38.9	38.9	38.9	77	32.3	3	7	112	0.00	30.388 
08:30	39.3	39.3	39.3	76	32.4	2	7	112	0.00	30.404 
08:35	39.5	39.5	39.5	75	32.2	3	7	112	0.00	30.404 
08:40	39.8	39.8	39.8	74	32.2	3	9	112	0.00	30.404 
08:45	39.6	36.0	39.6	73	31.7	5	11	112	0.00	30.405 
08:50	39.9	39.9	39.9	74	32.3	3	9	112	0.00	30.405 
08:55	39.9	36.4	39.9	73	32.0	5	11	112	0.00	30.405 
09:00	40.1	36.6	40.1	73	32.2	5	10	112	0.00	30.405 
09:05	40.3	40.3	40.3	73	32.3	3	12	90	0.00	30.405 
09:10	40.8	38.2	40.8	72	32.5	4	10	112	0.00	30.405 
09:15	41.1	37.8	41.1	70	32.1	5	11	112	0.00	30.410 
09:20	41.1	37.8	41.1	71	32.4	5	12	112	0.00	30.410 
09:25	41.2	37.9	41.2	71	32.5	5	11	112	0.00	30.410 
09:30	41.6	41.6	41.6	71	32.9	3	9	90	0.00	30.406 
09:35	42.1	39.7	42.1	69	32.7	4	11	112	0.00	30.406 
09:40	42.3	40.0	42.3	69	32.9	4	10	112	0.00	30.406 
09:45	42.6	42.6	42.6	68	32.8	3	11	112	0.00	30.404 
09:50	43.1	40.9	43.1	67	32.9	4	9	112	0.00	30.404 
09:55	43.1	40.1	43.1	68	33.3	5	10	112	0.00	30.404 
10:00	43.6	40.7	43.6	68	33.7	5	10	112	0.00	30.401 
10:05	44.1	42.1	44.1	67	33.9	4	9	112	0.00	30.401 
10:10	44.2	41.4	44.2	65	33.2	5	11	112	0.00	30.401 
10:15	44.6	41.9	44.6	67	34.3	5	12	112	0.00	30.406 
10:20	44.8	42.1	44.8	65	33.8	5	10	112	0.00	30.406 
10:25	44.9	42.2	44.9	66	34.2	5	9	112	0.00	30.406 
10:30	45.4	43.6	45.4	65	34.3	4	10	90	0.00	30.411 
10:35	45.7	43.9	45.7	64	34.2	4	10	90	0.00	30.411 
10:40	46.0	44.2	46.0	65	34.9	4	9	90	0.00	30.411 
10:45	46.4	44.7	46.4	65	35.3	4	10	112	0.00	30.408 
10:50	46.7	46.7	46.7	65	35.6	3	13	90	0.00	30.408 
10:55	46.7	44.3	46.7	63	34.8	5	10	112	0.00	30.408 
11:00	47.1	45.5	47.1	63	35.2	4	10	90	0.00	30.406 
11:05	47.0	43.6	47.0	63	35.1	7	13	112	0.00	30.406 
11:10	47.0	44.1	47.0	64	35.5	6	12	90	0.00	30.406 
11:15	47.1	44.8	47.1	63	35.2	5	13	90	0.00	30.409 
11:20	47.7	47.7	47.7	63	35.7	3	9	112	0.00	30.409 
11:25	48.5	47.1	48.5	62	36.1	4	10	112	0.00	30.409 
11:30	48.8	48.8	48.8	62	36.4	3	10	112	0.00	30.404 
11:35	49.1	47.2	49.1	63	37.1	5	12	112	0.00	30.404 
11:40	49.4	47.5	49.4	61	36.5	5	13	112	0.00	30.404 
11:45	49.9	48.8	49.9	61	37.0	4	7	112	0.00	30.404 
11:50	50.1	50.1	50.1	58	35.9	5	13	112	0.00	30.404 
11:55	49.9	48.1	49.9	62	37.4	5	10	112	0.00	30.404 
12:00	50.1	50.1	50.1	62	37.6	5	12	112	0.00	30.401 
12:05	50.7	50.7	50.7	59	36.9	4	9	112	0.00	30.401 
12:10	50.8	50.8	50.8	58	36.6	5	12	112	0.00	30.401 
12:15	50.8	50.8	50.8	59	37.0	6	11	90	0.00	30.395 
12:20	51.1	51.1	51.1	60	37.7	5	14	112	0.00	30.395 
12:25	52.0	52.0	52.0	59	38.1	3	8	112	0.00	30.395 
12:30	52.0	52.0	52.0	58	37.7	5	10	112	0.00	30.388 
12:35	51.9	51.9	51.9	58	37.6	6	15	90	0.00	30.388 
12:40	51.9	51.9	51.9	59	38.0	5	12	90	0.00	30.388 
12:45	52.8	52.8	52.8	56	37.5	4	11	90	0.00	30.388 
12:50	53.5	53.5	53.5	57	38.6	3	7	112	0.00	30.388 
12:55	53.9	53.9	53.9	54	37.6	5	12	112	0.00	30.388 
13:00	53.6	53.6	53.6	53	36.9	6	11	112	0.00	30.384 
13:05	53.6	53.6	53.6	54	37.4	5	11	90	0.00	30.384 
13:10	53.5	53.5	53.5	53	36.8	6	12	90	0.00	30.384 
13:15	53.5	53.5	53.5	56	38.2	5	14	112	0.00	30.378 
13:20	53.6	53.6	53.6	53	36.9	6	14	90	0.00	30.378 
13:25	53.6	53.6	53.6	53	36.9	5	10	112	0.00	30.378 
13:30	53.9	53.9	53.9	52	36.7	6	15	112	0.00	30.373 
13:35	54.4	54.4	54.4	53	37.6	5	11	90	0.00	30.373 
13:40	55.1	55.1	55.1	54	38.8	3	10	112	0.00	30.373 
13:45	55.7	55.7	55.7	50	37.3	4	13	90	0.00	30.368 
13:50	55.1	55.1	55.1	50	36.8	7	16	112	0.00	30.368 
13:55	55.1	55.1	55.1	51	37.3	5	12	112	0.00	30.368 
14:00	55.9	55.9	55.9	51	38.0	4	7	112	0.00	30.369 
14:05	55.9	55.9	55.9	50	37.5	4	12	90	0.00	30.369 
14:10	56.0	56.0	56.0	47	36.1	5	13	112	0.00	30.369 
14:15	56.2	56.2	56.2	52	38.8	4	9	90	0.00	30.358 
14:20	56.6	56.6	56.6	49	37.7	5	12	90	0.00	30.358 
14:25	56.6	56.6	56.6	48	37.1	4	11	112	0.00	30.358 
14:30	56.5	56.5	56.5	47	36.5	5	11	90	0.00	30.354 
14:35	56.7	56.7	56.7	47	36.7	5	13	90	0.00	30.354 
14:40	56.9	56.9	56.9	43	34.6	5	11	90	0.00	30.354 
14:45	57.0	57.0	57.0	45	35.9	3	10	112	0.00	30.355 
14:50	57.5	57.5	57.5	43	35.2	5	11	112	0.00	30.355 
14:55	57.5	57.5	57.5	42	34.6	5	13	112	0.00	30.355 
15:00	57.6	57.6	57.6	42	34.7	5	11	90	0.00	30.353 
15:05	57.6	57.6	57.6	44	35.8	4	9	90	0.00	30.353 
15:10	58.1	58.1	58.1	43	35.7	4	11	90	0.00	30.353 
15:15	58.1	58.1	58.1	44	36.3	3	10	112	0.00	30.350 
15:20	58.3	58.3	58.3	40	34.1	4	12	90	0.00	30.350 
15:25	58.3	58.3	58.3	39	33.5	4	12	90	0.00	30.350 
15:30	58.3	58.3	58.3	37	32.1	4	11	112	0.00	30.340 
15:35	58.4	58.4	58.4	39	33.5	5	11	90	0.00	30.340 
15:40	58.1	58.1	58.1	40	33.9	5	12	112	0.00	30.340 
15:45	58.1	58.1	58.1	38	32.6	5	12	90	0.00	30.334 
15:50	58.3	58.3	58.3	40	34.1	3	10	90	0.00	30.334 
15:55	58.4	58.4	58.4	38	32.9	5	10	112	0.00	30.334 
16:00	58.3	58.3	58.3	37	32.1	5	12	90	0.00	30.327 
16:05	58.4	58.4	58.4	36	31.6	4	9	112	0.00	30.327 
16:10	58.7	58.7	58.7	39	33.8	3	11	90	0.00	30.327 
16:15	58.7	58.7	58.7	36	31.8	6	12	90	0.00	30.321 
16:20	58.7	58.7	58.7	35	31.1	4	11	90	0.00	30.321 
16:25	58.9	58.9	58.9	34	30.6	5	10	112	0.00	30.321 
16:30	58.6	58.6	58.6	31	28.1	6	12	112	0.00	30.316 
16:35	58.4	58.4	58.4	34	30.1	5	11	90	0.00	30.316 
16:40	58.7	58.7	58.7	34	30.4	4	11	90	0.00	30.316 
16:45	58.9	58.9	58.9	32	29.1	5	10	90	0.00	30.307 
16:50	58.7	58.7	58.7	31	28.1	5	11	90	0.00	30.307 
16:55	58.9	58.9	58.9	31	28.3	4	10	112	0.00	30.307 
17:00	58.9	58.9	58.9	33	29.9	4	10	90	0.00	30.304 
17:05	58.9	58.9	58.9	33	29.9	4	13	90	0.00	30.304 
17:10	59.0	59.0	59.0	31	28.4	4	11	90	0.00	30.304 
17:15	59.2	59.2	59.2	31	28.6	4	11	90	0.00	30.295 
17:20	58.7	58.7	58.7	30	27.4	6	15	90	0.00	30.295 
17:25	58.7	58.7	58.7	32	28.9	4	12	90	0.00	30.295 
17:30	58.7	58.7	58.7	32	28.9	5	11	90	0.00	30.293 
17:35	58.7	58.7	58.7	33	29.7	5	13	112	0.00	30.293 
17:40	58.7	58.7	58.7	32	28.9	4	12	90	0.00	30.293 
17:45	58.7	58.7	58.7	31	28.1	4	13	90	0.00	30.294 
17:50	58.7	58.7	58.7	32	28.9	4	10	90	0.00	30.294 
17:55	58.6	58.6	58.6	32	28.8	5	13	90	0.00	30.294 
18:00	58.4	58.4	58.4	30	27.1	4	8	112	0.00	30.293 
18:05	58.3	58.3	58.3	29	26.2	4	11	90	0.00	30.293 
18:10	58.0	58.0	58.0	29	25.9	5	9	112	0.00	30.293 
18:15	58.0	58.0	58.0	28	25.1	6	13	112	0.00	30.295 
18:20	57.6	57.6	57.6	30	26.4	4	9	90	0.00	30.295 
18:25	57.6	57.6	57.6	28	24.7	5	11	112	0.00	30.295 
18:30	57.5	57.5	57.5	30	26.3	4	12	90	0.00	30.297 
18:35	57.3	57.3	57.3	30	26.1	6	13	90	0.00	30.297 
18:40	57.2	57.2	57.2	31	26.8	5	11	90	0.00	30.297 
18:45	57.0	57.0	57.0	31	26.7	5	12	90	0.00	30.299 
18:50	56.9	56.9	56.9	30	25.8	4	8	112	0.00	30.299 
18:55	56.7	56.7	56.7	29	24.8	4	10	112	0.00	30.299 
19:00	56.5	56.5	56.5	29	24.6	4	10	90	0.00	30.305 
19:05	56.3	56.3	56.3	30	25.3	4	9	90	0.00	30.305 
19:10	56.2	56.2	56.2	28	23.5	5	10	112	0.00	30.305 
19:15	55.9	55.9	55.9	29	24.1	4	9	90	0.00	30.305 
19:20	55.7	55.7	55.7	29	23.9	4	7	112	0.00	30.305 
19:25	55.4	55.4	55.4	29	23.7	3	6	112	0.00	30.305 
19:30	55.1	55.1	55.1	28	22.6	4	10	90	0.00	30.307 
19:35	55.0	55.0	55.0	29	23.3	3	8	90	0.00	30.307 
19:40	54.7	54.7	54.7	28	22.2	4	10	90	0.00	30.307 
19:45	54.4	54.4	54.4	28	22.0	4	13	90	0.00	30.307 
19:50	54.1	54.1	54.1	28	21.7	4	10	90	0.00	30.307 
19:55	53.8	53.8	53.8	28	21.5	3	7	90	0.00	30.307 
20:00	53.5	53.5	53.5	28	21.2	4	10	90	0.00	30.312 
20:05	53.3	53.3	53.3	27	20.2	4	8	90	0.00	30.312 
20:10	53.1	53.1	53.1	27	20.0	4	8	90	0.00	30.312 
20:15	52.6	52.6	52.6	28	20.4	3	9	90	0.00	30.314 
20:20	52.2	52.2	52.2	29	20.9	3	6	90	0.00	30.314 
20:25	51.7	51.7	51.7	29	20.5	3	7	90	0.00	30.314 
20:30	51.4	51.4	51.4	29	20.2	3	8	90	0.00	30.314 
20:35	51.1	51.1	51.1	30	20.8	4	7	90	0.00	30.314 
20:40	50.8	50.8	50.8	31	21.3	2	7	90	0.00	30.314 
20:45	50.4	50.4	50.4	32	21.7	3	7	90	0.00	30.318 
20:50	50.1	50.1	50.1	33	22.1	3	9	90	0.00	30.318 
20:55	49.8	49.8	49.8	34	22.6	2	6	90	0.00	30.318 
21:00	49.5	49.5	49.5	36	23.7	2	5	90	0.00	30.321 
21:05	49.2	49.2	49.2	36	23.4	2	6	90	0.00	30.321 
21:10	49.1	49.1	49.1	38	24.6	1	6	90	0.00	30.321 
21:15	48.8	48.8	48.8	38	24.3	2	5	90	0.00	30.321 
21:20	48.5	48.5	48.5	39	24.7	1	4	90	0.00	30.321 
21:25	48.2	48.2	48.2	39	24.4	1	4	90	0.00	30.321 
21:30	48.0	48.0	48.0	40	24.8	2	5	90	0.00	30.318 
21:35	47.7	47.7	47.7	41	25.2	1	4	90	0.00	30.318 
21:40	47.4	47.4	47.4	42	25.5	1	3	90	0.00	30.318 
21:45	47.1	47.1	47.1	42	25.2	1	3	90	0.00	30.317 
21:50	47.0	47.0	47.0	41	24.5	1	3	90	0.00	30.317 
21:55	46.7	46.7	46.7	41	24.3	1	4	90	0.00	30.317 
22:00	46.5	46.5	46.5	41	24.1	2	4	90	0.00	30.317 
22:05	46.4	46.4	46.4	41	24.0	1	3	90	0.00	30.317 
22:10	46.1	46.1	46.1	42	24.3	1	3	90	0.00	30.317 
22:15	46.0	46.0	46.0	41	23.6	2	5	90	0.00	30.314 
22:20	45.8	45.8	45.8	41	23.5	1	3	90	0.00	30.314 
22:25	45.7	45.7	45.7	42	23.9	0	2	90	0.00	30.314 
22:30	45.4	45.4	45.4	42	23.7	0	1	90	0.00	30.320 
22:35	45.2	45.2	45.2	43	24.0	0	1	90	0.00	30.320 
22:40	45.1	45.1	45.1	43	24.0	1	4	90	0.00	30.320 
22:45	45.1	45.1	45.1	43	24.0	1	2	90	0.00	30.321 
22:50	44.9	44.9	44.9	44	24.3	1	3	90	0.00	30.321 
22:55	44.8	44.8	44.8	45	24.8	2	4	90	0.00	30.321 
23:00	44.6	44.6	44.6	46	25.1	2	4	90	0.00	30.316 
23:05	44.6	44.6	44.6	46	25.1	1	3	90	0.00	30.316 
23:10	44.5	44.5	44.5	48	26.0	0	3	90	0.00	30.316 
23:15	44.3	44.3	44.3	48	25.9	1	3	90	0.00	30.319 
23:20	44.1	44.1	44.1	49	26.2	1	3	90	0.00	30.319 
23:25	44.1	44.1	44.1	50	26.7	1	3	90	0.00	30.319 
23:30	43.9	43.9	43.9	50	26.5	1	3	90	0.00	30.315 
23:35	43.8	43.8	43.8	50	26.4	1	3	90	0.00	30.315 
23:40	43.6	43.6	43.6	51	26.7	1	2	90	0.00	30.315 
23:45	43.5	43.5	43.5	52	27.1	0	2	90	0.00	30.314 
23:50	43.3	43.3	43.3	52	26.9	1	3	90	0.00	30.314 
23:55	43.2	43.2	43.2	53	27.2	0	2	90	0.00	30.314 

CoCoRaHS
IN-AL-39
A2 Web Hosting
Creative Commons License
GoDaddy
search engine by freefind advanced

loaded 2018-11-20 06:30:27 • last modified 2010-11-18 10:43:29
Privacy PolicyDisclaimer
• wx.awcolley.com is powered by PmWiki v.2002016 •
• all content (unless otherwise noted) © 2018 A W Colley